QTR8095 LEZG-VGHS
Flight info
| Callsign | QTR8095 |
|---|---|
| Flight time | N/A |
| Altitude | 36000 |
| Route | GRAUS DCT PIVUS N870 DIBER DCT ZETCO DCT MOULE DCT OKBIS DCT XAMIT DCT DIXUM DCT TORTO DCT ETIDA Q7 IVGOT L744 UDROS UM859 KARDE UN644 ROLIN N644 LAGAS M747 SUBUT T923 ERLEV M11 RODAR A909 NINOP B475 DAVET P173 TAPIS L509 SULOM A466 ASARI L509 GUGIP B345 KEVOD J71 PPT A201 RAJ G463 IDLOX |
| Aircraft | B77L/H-SDE1E2E3FGHIJ2J3J4J5M1RWXY/LB1D1 |
Departure
| Time | 2026-04-27 22:29 |
|---|---|
| Airport | Zaragoza Airport (LEZG) |
Arrival
| Time | N/A |
|---|---|
| Airport | Hazrat Shahjalal International Airport (VGHS) |
| Time | Latitude | Longitude | Altitude | Speed | Heading |
|---|---|---|---|---|---|
| 2026-04-27 22:22 | 41.66369 | -1.04424 | 877 ft | 0 kts | 300° |
| 2026-04-27 22:26 | 41.66371 | -1.04430 | 877 ft | 6 kts | 300° |
| 2026-04-27 22:27 | 41.66383 | -1.04457 | 877 ft | 0 kts | 300° |
| 2026-04-27 22:27 | 41.66384 | -1.04459 | 877 ft | 0 kts | 300° |
| 2026-04-27 22:27 | 41.66385 | -1.04461 | 878 ft | 0 kts | 300° |
| 2026-04-27 22:27 | 41.66386 | -1.04464 | 878 ft | 0 kts | 300° |
| 2026-04-27 22:28 | 41.66389 | -1.04470 | 878 ft | 5 kts | 300° |
| 2026-04-27 22:28 | 41.66522 | -1.04768 | 879 ft | 76 kts | 300° |
| 2026-04-27 22:28 | 41.66919 | -1.05682 | 874 ft | 153 kts | 300° |
| 2026-04-27 22:28 | 41.67571 | -1.07183 | 927 ft | 215 kts | 300° |
| 2026-04-27 22:29 | 41.68317 | -1.08882 | 1759 ft | 202 kts | 299° |
| 2026-04-27 22:29 | 41.69043 | -1.10576 | 1932 ft | 215 kts | 302° |
| 2026-04-27 22:29 | 41.69856 | -1.12321 | 2176 ft | 235 kts | 301° |
| 2026-04-27 22:29 | 41.70754 | -1.14267 | 2442 ft | 255 kts | 301° |
| 2026-04-27 22:30 | 41.71688 | -1.16319 | 3098 ft | 259 kts | 302° |
| 2026-04-27 22:30 | 41.72628 | -1.18397 | 3768 ft | 264 kts | 301° |
| 2026-04-27 22:30 | 41.73616 | -1.20499 | 4339 ft | 268 kts | 309° |
| 2026-04-27 22:30 | 41.75134 | -1.21937 | 4830 ft | 274 kts | 346° |
| 2026-04-27 22:31 | 41.77022 | -1.21989 | 5350 ft | 275 kts | 19° |
| 2026-04-27 22:31 | 41.78770 | -1.20956 | 5951 ft | 276 kts | 26° |
| 2026-04-27 22:31 | 41.80663 | -1.20375 | 6490 ft | 286 kts | 359° |
| 2026-04-27 22:31 | 41.82645 | -1.20624 | 7112 ft | 287 kts | 356° |
| 2026-04-27 22:32 | 41.84645 | -1.20851 | 7819 ft | 289 kts | 356° |
| 2026-04-27 22:32 | 41.86657 | -1.21054 | 8533 ft | 291 kts | 356° |
| 2026-04-27 22:32 | 41.88686 | -1.21259 | 9233 ft | 294 kts | 356° |
| 2026-04-27 22:32 | 41.90723 | -1.21227 | 9797 ft | 296 kts | 14° |
| 2026-04-27 22:33 | 41.92610 | -1.20112 | 10318 ft | 300 kts | 39° |
| 2026-04-27 22:33 | 41.93973 | -1.17934 | 10519 ft | 313 kts | 60° |
| 2026-04-27 22:33 | 41.95113 | -1.15341 | 10665 ft | 331 kts | 65° |
| 2026-04-27 22:33 | 41.95684 | -1.12284 | 10751 ft | 349 kts | 89° |
| 2026-04-27 22:34 | 41.95558 | -1.08937 | 10921 ft | 370 kts | 97° |
| 2026-04-27 22:34 | 41.95235 | -1.05458 | 11390 ft | 380 kts | 98° |
| 2026-04-27 22:34 | 41.94916 | -1.01906 | 12060 ft | 386 kts | 96° |
| 2026-04-27 22:34 | 41.94652 | -0.98291 | 12733 ft | 391 kts | 95° |
| 2026-04-27 22:35 | 41.94444 | -0.94642 | 13474 ft | 394 kts | 94° |
| 2026-04-27 22:35 | 41.94275 | -0.90957 | 14215 ft | 396 kts | 93° |
| 2026-04-27 22:35 | 41.94128 | -0.87242 | 14794 ft | 402 kts | 93° |
| 2026-04-27 22:35 | 41.93989 | -0.83470 | 15361 ft | 407 kts | 93° |
| 2026-04-27 22:36 | 41.93852 | -0.79653 | 15980 ft | 411 kts | 93° |
| 2026-04-27 22:36 | 41.93713 | -0.75804 | 16563 ft | 416 kts | 94° |
| 2026-04-27 22:36 | 41.93570 | -0.71912 | 17232 ft | 418 kts | 94° |
| 2026-04-27 22:36 | 41.93425 | -0.68009 | 17890 ft | 421 kts | 94° |
| 2026-04-27 22:37 | 41.93276 | -0.64059 | 18463 ft | 425 kts | 94° |
| 2026-04-27 22:37 | 41.93125 | -0.60077 | 18972 ft | 429 kts | 94° |
| 2026-04-27 22:37 | 41.92970 | -0.56057 | 19517 ft | 432 kts | 94° |
| 2026-04-27 22:37 | 41.92814 | -0.52009 | 20057 ft | 436 kts | 94° |
| 2026-04-27 22:38 | 41.92804 | -0.47922 | 20563 ft | 440 kts | 89° |
| 2026-04-27 22:38 | 41.93021 | -0.43801 | 21068 ft | 445 kts | 86° |
| 2026-04-27 22:38 | 41.93327 | -0.39651 | 21564 ft | 449 kts | 85° |
| 2026-04-27 22:38 | 41.93649 | -0.35475 | 22060 ft | 452 kts | 85° |
| 2026-04-27 22:39 | 41.93958 | -0.31251 | 22570 ft | 456 kts | 86° |
| 2026-04-27 22:39 | 41.94245 | -0.26997 | 23060 ft | 459 kts | 86° |
| 2026-04-27 22:39 | 41.94514 | -0.22708 | 23547 ft | 463 kts | 87° |
| 2026-04-27 22:39 | 41.94772 | -0.18379 | 23980 ft | 467 kts | 87° |
| 2026-04-27 22:40 | 41.95025 | -0.14019 | 24402 ft | 469 kts | 87° |
| 2026-04-27 22:40 | 41.95276 | -0.09631 | 24829 ft | 472 kts | 87° |
| 2026-04-27 22:40 | 41.95528 | -0.05223 | 25243 ft | 476 kts | 87° |
| 2026-04-27 22:40 | 41.95780 | -0.00772 | 25665 ft | 479 kts | 86° |
| 2026-04-27 22:41 | 41.96024 | 0.03538 | 26027 ft | 482 kts | 86° |
| 2026-04-27 22:41 | 41.96278 | 0.08051 | 26414 ft | 486 kts | 86° |
| 2026-04-27 22:41 | 41.96532 | 0.12584 | 26814 ft | 489 kts | 86° |
| 2026-04-27 22:41 | 41.96786 | 0.17157 | 27230 ft | 491 kts | 86° |
| 2026-04-27 22:42 | 41.97039 | 0.21747 | 27632 ft | 494 kts | 86° |
| 2026-04-27 22:42 | 41.97289 | 0.26310 | 28020 ft | 497 kts | 86° |
| 2026-04-27 22:42 | 41.97543 | 0.30954 | 28396 ft | 500 kts | 86° |
| 2026-04-27 22:42 | 41.97795 | 0.35626 | 28767 ft | 503 kts | 86° |
| 2026-04-27 22:43 | 41.98001 | 0.40342 | 29112 ft | 506 kts | 89° |
| 2026-04-27 22:43 | 41.98060 | 0.45065 | 29579 ft | 506 kts | 91° |
| 2026-04-27 22:43 | 41.98037 | 0.49779 | 30150 ft | 504 kts | 91° |
| 2026-04-27 22:43 | 41.97984 | 0.54475 | 30612 ft | 502 kts | 91° |
| 2026-04-27 22:44 | 41.97931 | 0.59164 | 31072 ft | 500 kts | 91° |
| 2026-04-27 22:44 | 41.97888 | 0.63821 | 31495 ft | 499 kts | 91° |
| 2026-04-27 22:44 | 41.97857 | 0.68488 | 31900 ft | 498 kts | 91° |
| 2026-04-27 22:44 | 41.97836 | 0.73133 | 32311 ft | 497 kts | 90° |
| 2026-04-27 22:45 | 41.97819 | 0.77780 | 32717 ft | 496 kts | 90° |
| 2026-04-27 22:45 | 41.97804 | 0.82401 | 33203 ft | 492 kts | 90° |
| 2026-04-27 22:45 | 41.97788 | 0.86987 | 33637 ft | 490 kts | 90° |
| 2026-04-27 22:45 | 41.97769 | 0.91564 | 33998 ft | 490 kts | 90° |
| 2026-04-27 22:46 | 41.97748 | 0.96141 | 34284 ft | 490 kts | 90° |
| 2026-04-27 22:46 | 41.97726 | 1.00560 | 34522 ft | 490 kts | 90° |
| 2026-04-27 22:46 | 41.97700 | 1.05139 | 34748 ft | 490 kts | 90° |
| 2026-04-27 22:46 | 41.97672 | 1.09731 | 34979 ft | 491 kts | 90° |
| 2026-04-27 22:47 | 41.97642 | 1.14313 | 35217 ft | 491 kts | 91° |
| 2026-04-27 22:47 | 41.97611 | 1.18890 | 35516 ft | 489 kts | 91° |
| 2026-04-27 22:47 | 41.97578 | 1.23452 | 35749 ft | 489 kts | 91° |
| 2026-04-27 22:48 | 41.97505 | 1.32664 | 35889 ft | 496 kts | 91° |
| 2026-04-27 22:48 | 41.97465 | 1.37319 | 36021 ft | 498 kts | 91° |
| 2026-04-27 22:48 | 41.97424 | 1.41972 | 36174 ft | 499 kts | 91° |
| 2026-04-27 22:48 | 41.97381 | 1.46633 | 36335 ft | 500 kts | 91° |
| 2026-04-27 22:49 | 41.97336 | 1.51316 | 36459 ft | 502 kts | 91° |
| 2026-04-27 22:49 | 41.97239 | 1.60717 | 36671 ft | 505 kts | 91° |
| 2026-04-27 22:49 | 41.97187 | 1.65434 | 36797 ft | 506 kts | 91° |
| 2026-04-27 22:50 | 41.97134 | 1.70170 | 36903 ft | 507 kts | 91° |
| 2026-04-27 22:50 | 41.97021 | 1.79668 | 37053 ft | 510 kts | 91° |
| 2026-04-27 22:51 | 41.96899 | 1.89217 | 37114 ft | 512 kts | 91° |
| 2026-04-27 22:51 | 41.96769 | 1.98794 | 37117 ft | 513 kts | 91° |
| 2026-04-27 22:52 | 41.96635 | 2.08103 | 37112 ft | 513 kts | 91° |
| 2026-04-27 22:52 | 41.96488 | 2.17764 | 37105 ft | 514 kts | 91° |